<?xml version="1.0" encoding="UTF-8" standalone="no" ?>
<gpx xmlns="http://www.topografix.com/GPX/1/1" xmlns:xsi="http://www.w3.org/2001/XMLSchema-instance" xsi:schemaLocation="http://www.topografix.com/GPX/1/1 http://www.topografix.com/GPX/1/1/gpx.xsd" version="1.1" creator="VisuGPX - https://www.visugpx.com">
  <metadata>
    <name>Trail Apremont-LacGenin 20km</name>
  </metadata>
  <trk>
    <name><![CDATA[Trail Apremont-LacGenin 20km_1]]></name>
    <trkseg>
      <trkpt lat="46.20754" lon="5.65957">
        <ele>906.8</ele>
      </trkpt>
      <trkpt lat="46.20764" lon="5.66016">
        <ele>908.5</ele>
      </trkpt>
      <trkpt lat="46.20769" lon="5.66035">
        <ele>908.5</ele>
      </trkpt>
      <trkpt lat="46.20781" lon="5.66077">
        <ele>908.4</ele>
      </trkpt>
      <trkpt lat="46.20789" lon="5.66115">
        <ele>907.9</ele>
      </trkpt>
      <trkpt lat="46.20799" lon="5.66169">
        <ele>907.4</ele>
      </trkpt>
      <trkpt lat="46.20805" lon="5.66197">
        <ele>905.9</ele>
      </trkpt>
      <trkpt lat="46.20814" lon="5.66222">
        <ele>904.1</ele>
      </trkpt>
      <trkpt lat="46.20827" lon="5.66251">
        <ele>903.2</ele>
      </trkpt>
      <trkpt lat="46.20836" lon="5.66279">
        <ele>902</ele>
      </trkpt>
      <trkpt lat="46.2084" lon="5.66309">
        <ele>901.9</ele>
      </trkpt>
      <trkpt lat="46.20842" lon="5.66333">
        <ele>901</ele>
      </trkpt>
      <trkpt lat="46.20839" lon="5.66375">
        <ele>899.4</ele>
      </trkpt>
      <trkpt lat="46.20834" lon="5.66425">
        <ele>899.4</ele>
      </trkpt>
      <trkpt lat="46.20839" lon="5.66459">
        <ele>897.8</ele>
      </trkpt>
      <trkpt lat="46.20853" lon="5.66499">
        <ele>897.3</ele>
      </trkpt>
      <trkpt lat="46.20859" lon="5.6651">
        <ele>893.3801</ele>
        <time>2022-02-24T18:46:52.135Z</time>
      </trkpt>
      <trkpt lat="46.20883" lon="5.66535">
        <ele>893.042459</ele>
        <time>2022-02-24T18:46:38.936Z</time>
      </trkpt>
      <trkpt lat="46.20898" lon="5.6656">
        <ele>892.789995</ele>
        <time>2022-02-24T18:46:29.138Z</time>
      </trkpt>
      <trkpt lat="46.20919" lon="5.66618">
        <ele>892.278651</ele>
        <time>2022-02-24T18:46:09.747Z</time>
      </trkpt>
      <trkpt lat="46.20919" lon="5.66618">
        <ele>892.27541</ele>
        <time>2022-02-24T18:46:09.383Z</time>
      </trkpt>
      <trkpt lat="46.20952" lon="5.66667">
        <ele>891.846777</ele>
        <time>2022-02-24T18:45:49.618Z</time>
      </trkpt>
      <trkpt lat="46.2096" lon="5.66677">
        <ele>891.917118</ele>
        <time>2022-02-24T18:45:44.668Z</time>
      </trkpt>
      <trkpt lat="46.20976" lon="5.66698">
        <ele>892.063687</ele>
        <time>2022-02-24T18:45:35.355Z</time>
      </trkpt>
      <trkpt lat="46.20978" lon="5.66703">
        <ele>892.090747</ele>
        <time>2022-02-24T18:45:33.613Z</time>
      </trkpt>
      <trkpt lat="46.20993" lon="5.66735">
        <ele>892.269541</ele>
        <time>2022-02-24T18:45:22.608Z</time>
      </trkpt>
      <trkpt lat="46.20996" lon="5.6677">
        <ele>892.435097</ele>
        <time>2022-02-24T18:45:12.521Z</time>
      </trkpt>
      <trkpt lat="46.21006" lon="5.66843">
        <ele>892.776638</ele>
        <time>2022-02-24T18:44:51.929Z</time>
      </trkpt>
      <trkpt lat="46.21013" lon="5.66858">
        <ele>892.862423</ele>
        <time>2022-02-24T18:44:46.805Z</time>
      </trkpt>
      <trkpt lat="46.21037" lon="5.66882">
        <ele>893.58023</ele>
        <time>2022-02-24T18:44:35.753Z</time>
      </trkpt>
      <trkpt lat="46.21048" lon="5.6689">
        <ele>894.733793</ele>
        <time>2022-02-24T18:44:31.365Z</time>
      </trkpt>
      <trkpt lat="46.2106" lon="5.66915">
        <ele>896.746861</ele>
        <time>2022-02-24T18:44:23.427Z</time>
      </trkpt>
      <trkpt lat="46.21076" lon="5.66972">
        <ele>900.811824</ele>
        <time>2022-02-24T18:44:07.817Z</time>
      </trkpt>
      <trkpt lat="46.21083" lon="5.67007">
        <ele>903.156181</ele>
        <time>2022-02-24T18:43:59.595Z</time>
      </trkpt>
      <trkpt lat="46.21029" lon="5.6717">
        <ele>920.21512</ele>
        <time>2022-02-24T18:43:12.608Z</time>
      </trkpt>
      <trkpt lat="46.21013" lon="5.6722">
        <ele>927.801247</ele>
        <time>2022-02-24T18:42:58.167Z</time>
      </trkpt>
      <trkpt lat="46.21" lon="5.67241">
        <ele>931.587089</ele>
        <time>2022-02-24T18:42:50.953Z</time>
      </trkpt>
      <trkpt lat="46.21002" lon="5.67264">
        <ele>934.682421</ele>
        <time>2022-02-24T18:42:45.065Z</time>
      </trkpt>
      <trkpt lat="46.21062" lon="5.67312">
        <ele>948.055978</ele>
        <time>2022-02-24T18:42:19.575Z</time>
      </trkpt>
      <trkpt lat="46.2119" lon="5.67481">
        <ele>981.299366</ele>
        <time>2022-02-24T18:41:14.775Z</time>
      </trkpt>
      <trkpt lat="46.21218" lon="5.67534">
        <ele>985.829691</ele>
        <time>2022-02-24T18:40:57.223Z</time>
      </trkpt>
      <trkpt lat="46.21207" lon="5.676">
        <ele>990.433253</ele>
        <time>2022-02-24T18:40:39.024Z</time>
      </trkpt>
      <trkpt lat="46.21202" lon="5.67632">
        <ele>992.618715</ele>
        <time>2022-02-24T18:40:29.980Z</time>
      </trkpt>
      <trkpt lat="46.21166" lon="5.67753">
        <ele>997.969987</ele>
        <time>2022-02-24T18:39:50.246Z</time>
      </trkpt>
      <trkpt lat="46.21089" lon="5.67753">
        <ele>997.657247</ele>
        <time>2022-02-24T18:39:10.801Z</time>
      </trkpt>
      <trkpt lat="46.21047" lon="5.67796">
        <ele>997.450138</ele>
        <time>2022-02-24T18:38:43.548Z</time>
      </trkpt>
      <trkpt lat="46.21013" lon="5.67877">
        <ele>996.571726</ele>
        <time>2022-02-24T18:38:08.119Z</time>
      </trkpt>
      <trkpt lat="46.21073" lon="5.67883">
        <ele>995.578016</ele>
        <time>2022-02-24T18:37:36.337Z</time>
      </trkpt>
      <trkpt lat="46.21073" lon="5.67883">
        <ele>995.576367</ele>
        <time>2022-02-24T18:37:36.020Z</time>
      </trkpt>
      <trkpt lat="46.21153" lon="5.67959">
        <ele>994.951617</ele>
        <time>2022-02-24T18:36:48.368Z</time>
      </trkpt>
      <trkpt lat="46.21248" lon="5.68041">
        <ele>997.248629</ele>
        <time>2022-02-24T18:35:58.436Z</time>
      </trkpt>
      <trkpt lat="46.21278" lon="5.68072">
        <ele>998.028708</ele>
        <time>2022-02-24T18:35:41.779Z</time>
      </trkpt>
      <trkpt lat="46.21302" lon="5.6809">
        <ele>998.557921</ele>
        <time>2022-02-24T18:35:29.898Z</time>
      </trkpt>
      <trkpt lat="46.21315" lon="5.68125">
        <ele>999.080424</ele>
        <time>2022-02-24T18:35:17.796Z</time>
      </trkpt>
      <trkpt lat="46.21354" lon="5.68163">
        <ele>999.999869</ele>
        <time>2022-02-24T18:34:56.100Z</time>
      </trkpt>
      <trkpt lat="46.21399" lon="5.68197">
        <ele>1000.969287</ele>
        <time>2022-02-24T18:34:32.804Z</time>
      </trkpt>
      <trkpt lat="46.21456" lon="5.68159">
        <ele>1001.452186</ele>
        <time>2022-02-24T18:34:02.181Z</time>
      </trkpt>
      <trkpt lat="46.21505" lon="5.68191">
        <ele>1001.098844</ele>
        <time>2022-02-24T18:33:35.021Z</time>
      </trkpt>
      <trkpt lat="46.21523" lon="5.68176">
        <ele>1000.95662</ele>
        <time>2022-02-24T18:33:24.148Z</time>
      </trkpt>
      <trkpt lat="46.21545" lon="5.68184">
        <ele>1000.808398</ele>
        <time>2022-02-24T18:33:12.851Z</time>
      </trkpt>
      <trkpt lat="46.216" lon="5.6823">
        <ele>1000.222073</ele>
        <time>2022-02-24T18:32:41.874Z</time>
      </trkpt>
      <trkpt lat="46.21662" lon="5.68269">
        <ele>998.487778</ele>
        <time>2022-02-24T18:32:08.876Z</time>
      </trkpt>
      <trkpt lat="46.21776" lon="5.68291">
        <ele>994.976989</ele>
        <time>2022-02-24T18:31:04.462Z</time>
      </trkpt>
      <trkpt lat="46.21855" lon="5.68367">
        <ele>988.004241</ele>
        <time>2022-02-24T18:30:02.040Z</time>
      </trkpt>
      <trkpt lat="46.21911" lon="5.68416">
        <ele>983.244842</ele>
        <time>2022-02-24T18:29:14.599Z</time>
      </trkpt>
      <trkpt lat="46.21938" lon="5.68444">
        <ele>980.634633</ele>
        <time>2022-02-24T18:28:49.979Z</time>
      </trkpt>
      <trkpt lat="46.21968" lon="5.68451">
        <ele>978.227807</ele>
        <time>2022-02-24T18:28:28.849Z</time>
      </trkpt>
      <trkpt lat="46.22015" lon="5.68406">
        <ele>973.773146</ele>
        <time>2022-02-24T18:27:52.073Z</time>
      </trkpt>
      <trkpt lat="46.22023" lon="5.6834">
        <ele>970.047676</ele>
        <time>2022-02-24T18:27:20.916Z</time>
      </trkpt>
      <trkpt lat="46.22048" lon="5.68216">
        <ele>962.316971</ele>
        <time>2022-02-24T18:26:18.856Z</time>
      </trkpt>
      <trkpt lat="46.22051" lon="5.68183">
        <ele>960.287969</ele>
        <time>2022-02-24T18:26:04.816Z</time>
      </trkpt>
      <trkpt lat="46.22053" lon="5.68154">
        <ele>958.480396</ele>
        <time>2022-02-24T18:25:52.207Z</time>
      </trkpt>
      <trkpt lat="46.2206" lon="5.68108">
        <ele>955.609632</ele>
        <time>2022-02-24T18:25:33.369Z</time>
      </trkpt>
      <trkpt lat="46.22061" lon="5.68098">
        <ele>954.98248</ele>
        <time>2022-02-24T18:25:27.523Z</time>
      </trkpt>
      <trkpt lat="46.22061" lon="5.68086">
        <ele>954.232922</ele>
        <time>2022-02-24T18:25:22.846Z</time>
      </trkpt>
      <trkpt lat="46.22057" lon="5.68068">
        <ele>953.070622</ele>
        <time>2022-02-24T18:25:15.331Z</time>
      </trkpt>
      <trkpt lat="46.22033" lon="5.6805">
        <ele>950.026227</ele>
        <time>2022-02-24T18:24:57.318Z</time>
      </trkpt>
      <trkpt lat="46.21989" lon="5.68031">
        <ele>944.46051</ele>
        <time>2022-02-24T18:24:24.739Z</time>
      </trkpt>
      <trkpt lat="46.21966" lon="5.68011">
        <ele>941.234629</ele>
        <time>2022-02-24T18:24:04.926Z</time>
      </trkpt>
      <trkpt lat="46.21953" lon="5.67995">
        <ele>939.123704</ele>
        <time>2022-02-24T18:23:52.420Z</time>
      </trkpt>
      <trkpt lat="46.21921" lon="5.67938">
        <ele>932.944749</ele>
        <time>2022-02-24T18:23:14.387Z</time>
      </trkpt>
      <trkpt lat="46.21865" lon="5.6782">
        <ele>920.327605</ele>
        <time>2022-02-24T18:21:59.567Z</time>
      </trkpt>
      <trkpt lat="46.21895" lon="5.67797">
        <ele>915.934825</ele>
        <time>2022-02-24T18:21:29.161Z</time>
      </trkpt>
      <trkpt lat="46.2193" lon="5.67692">
        <ele>905.983032</ele>
        <time>2022-02-24T18:20:19.371Z</time>
      </trkpt>
      <trkpt lat="46.21999" lon="5.67766">
        <ele>897.86034</ele>
        <time>2022-02-24T18:19:14.629Z</time>
      </trkpt>
      <trkpt lat="46.22016" lon="5.67771">
        <ele>896.218578</ele>
        <time>2022-02-24T18:19:02.501Z</time>
      </trkpt>
      <trkpt lat="46.22024" lon="5.67765">
        <ele>895.338817</ele>
        <time>2022-02-24T18:18:55.977Z</time>
      </trkpt>
      <trkpt lat="46.22053" lon="5.67695">
        <ele>890.100059</ele>
        <time>2022-02-24T18:18:17.238Z</time>
      </trkpt>
      <trkpt lat="46.22065" lon="5.67697">
        <ele>889.236037</ele>
        <time>2022-02-24T18:18:09.065Z</time>
      </trkpt>
      <trkpt lat="46.22073" lon="5.67702">
        <ele>888.586596</ele>
        <time>2022-02-24T18:18:02.919Z</time>
      </trkpt>
      <trkpt lat="46.22087" lon="5.67731">
        <ele>886.86837</ele>
        <time>2022-02-24T18:17:46.830Z</time>
      </trkpt>
      <trkpt lat="46.22101" lon="5.67737">
        <ele>885.779963</ele>
        <time>2022-02-24T18:17:36.717Z</time>
      </trkpt>
      <trkpt lat="46.22136" lon="5.67736">
        <ele>883.264065</ele>
        <time>2022-02-24T18:17:13.741Z</time>
      </trkpt>
      <trkpt lat="46.22159" lon="5.6777">
        <ele>880.878657</ele>
        <time>2022-02-24T18:16:52.343Z</time>
      </trkpt>
      <trkpt lat="46.22173" lon="5.67801">
        <ele>879.055546</ele>
        <time>2022-02-24T18:16:36.264Z</time>
      </trkpt>
      <trkpt lat="46.22209" lon="5.67803">
        <ele>876.63816</ele>
        <time>2022-02-24T18:16:12.696Z</time>
      </trkpt>
      <trkpt lat="46.22272" lon="5.67842">
        <ele>872.661537</ele>
        <time>2022-02-24T18:15:29.195Z</time>
      </trkpt>
      <trkpt lat="46.22294" lon="5.6785">
        <ele>871.338532</ele>
        <time>2022-02-24T18:15:14.778Z</time>
      </trkpt>
      <trkpt lat="46.22313" lon="5.67842">
        <ele>870.183903</ele>
        <time>2022-02-24T18:15:03.262Z</time>
      </trkpt>
      <trkpt lat="46.22326" lon="5.67835">
        <ele>869.398501</ele>
        <time>2022-02-24T18:14:54.394Z</time>
      </trkpt>
      <trkpt lat="46.22437" lon="5.67843">
        <ele>864.471705</ele>
        <time>2022-02-24T18:13:49.687Z</time>
      </trkpt>
      <trkpt lat="46.22518" lon="5.67958">
        <ele>860.460187</ele>
        <time>2022-02-24T18:12:48.177Z</time>
      </trkpt>
      <trkpt lat="46.22574" lon="5.6805">
        <ele>858.557187</ele>
        <time>2022-02-24T18:12:03.204Z</time>
      </trkpt>
      <trkpt lat="46.22672" lon="5.68103">
        <ele>856.288839</ele>
        <time>2022-02-24T18:11:08.611Z</time>
      </trkpt>
      <trkpt lat="46.22689" lon="5.68103">
        <ele>856.006639</ele>
        <time>2022-02-24T18:10:59.610Z</time>
      </trkpt>
      <trkpt lat="46.22718" lon="5.68078">
        <ele>855.457911</ele>
        <time>2022-02-24T18:10:42.222Z</time>
      </trkpt>
      <trkpt lat="46.2273" lon="5.68038">
        <ele>854.97079</ele>
        <time>2022-02-24T18:10:26.865Z</time>
      </trkpt>
      <trkpt lat="46.22799" lon="5.67999">
        <ele>853.757307</ele>
        <time>2022-02-24T18:09:48.790Z</time>
      </trkpt>
      <trkpt lat="46.22823" lon="5.67979">
        <ele>853.324107</ele>
        <time>2022-02-24T18:09:34.705Z</time>
      </trkpt>
      <trkpt lat="46.22861" lon="5.67977">
        <ele>852.756528</ele>
        <time>2022-02-24T18:09:15.649Z</time>
      </trkpt>
      <trkpt lat="46.22911" lon="5.67914">
        <ele>851.746956</ele>
        <time>2022-02-24T18:08:41.927Z</time>
      </trkpt>
      <trkpt lat="46.22995" lon="5.68034">
        <ele>848.144517</ele>
        <time>2022-02-24T18:07:40.448Z</time>
      </trkpt>
      <trkpt lat="46.23029" lon="5.68131">
        <ele>844.682954</ele>
        <time>2022-02-24T18:06:56.856Z</time>
      </trkpt>
      <trkpt lat="46.23041" lon="5.68185">
        <ele>842.89088</ele>
        <time>2022-02-24T18:06:31.714Z</time>
      </trkpt>
      <trkpt lat="46.2304" lon="5.68237">
        <ele>839.615729</ele>
        <time>2022-02-24T18:06:06.633Z</time>
      </trkpt>
      <trkpt lat="46.23026" lon="5.68303">
        <ele>834.675407</ele>
        <time>2022-02-24T18:05:29.549Z</time>
      </trkpt>
      <trkpt lat="46.2305" lon="5.68439">
        <ele>824.6605</ele>
        <time>2022-02-24T18:04:08.612Z</time>
      </trkpt>
      <trkpt lat="46.23086" lon="5.6847">
        <ele>820.731904</ele>
        <time>2022-02-24T18:03:33.271Z</time>
      </trkpt>
      <trkpt lat="46.23125" lon="5.68515">
        <ele>816.205399</ele>
        <time>2022-02-24T18:02:52.990Z</time>
      </trkpt>
      <trkpt lat="46.23221" lon="5.68584">
        <ele>807.173933</ele>
        <time>2022-02-24T18:01:39.864Z</time>
      </trkpt>
      <trkpt lat="46.23275" lon="5.68623">
        <ele>805.283348</ele>
        <time>2022-02-24T18:01:04.938Z</time>
      </trkpt>
      <trkpt lat="46.23296" lon="5.68645">
        <ele>804.475731</ele>
        <time>2022-02-24T18:00:50.752Z</time>
      </trkpt>
      <trkpt lat="46.23379" lon="5.68825">
        <ele>803.815317</ele>
        <time>2022-02-24T17:59:36.840Z</time>
      </trkpt>
      <trkpt lat="46.23407" lon="5.68862">
        <ele>804.842324</ele>
        <time>2022-02-24T17:59:19.292Z</time>
      </trkpt>
      <trkpt lat="46.23418" lon="5.68902">
        <ele>805.643882</ele>
        <time>2022-02-24T17:59:05.896Z</time>
      </trkpt>
      <trkpt lat="46.23427" lon="5.68956">
        <ele>806.67786</ele>
        <time>2022-02-24T17:58:49.943Z</time>
      </trkpt>
      <trkpt lat="46.23404" lon="5.69052">
        <ele>813.675022</ele>
        <time>2022-02-24T17:58:21.869Z</time>
      </trkpt>
      <trkpt lat="46.23367" lon="5.69091">
        <ele>818.412015</ele>
        <time>2022-02-24T17:58:04.177Z</time>
      </trkpt>
      <trkpt lat="46.23358" lon="5.69127">
        <ele>821.194344</ele>
        <time>2022-02-24T17:57:54.012Z</time>
      </trkpt>
      <trkpt lat="46.23378" lon="5.69166">
        <ele>824.632652</ele>
        <time>2022-02-24T17:57:41.545Z</time>
      </trkpt>
      <trkpt lat="46.23412" lon="5.69185">
        <ele>829.02346</ele>
        <time>2022-02-24T17:57:27.703Z</time>
      </trkpt>
      <trkpt lat="46.23425" lon="5.69205">
        <ele>831.367352</ele>
        <time>2022-02-24T17:57:20.562Z</time>
      </trkpt>
      <trkpt lat="46.23488" lon="5.69229">
        <ele>839.457883</ele>
        <time>2022-02-24T17:56:55.969Z</time>
      </trkpt>
      <trkpt lat="46.23496" lon="5.69233">
        <ele>840.554842</ele>
        <time>2022-02-24T17:56:52.645Z</time>
      </trkpt>
      <trkpt lat="46.23516" lon="5.69198">
        <ele>844.365589</ele>
        <time>2022-02-24T17:56:40.696Z</time>
      </trkpt>
      <trkpt lat="46.23541" lon="5.6917">
        <ele>848.236435</ele>
        <time>2022-02-24T17:56:28.282Z</time>
      </trkpt>
      <trkpt lat="46.23566" lon="5.69155">
        <ele>851.016625</ele>
        <time>2022-02-24T17:56:17.755Z</time>
      </trkpt>
      <trkpt lat="46.23584" lon="5.69155">
        <ele>852.830763</ele>
        <time>2022-02-24T17:56:10.971Z</time>
      </trkpt>
      <trkpt lat="46.23631" lon="5.692">
        <ele>858.622519</ele>
        <time>2022-02-24T17:55:48.869Z</time>
      </trkpt>
      <trkpt lat="46.23683" lon="5.69198">
        <ele>863.924515</ele>
        <time>2022-02-24T17:55:28.293Z</time>
      </trkpt>
      <trkpt lat="46.23734" lon="5.69147">
        <ele>870.451095</ele>
        <time>2022-02-24T17:55:04.792Z</time>
      </trkpt>
      <trkpt lat="46.23763" lon="5.69132">
        <ele>873.831008</ele>
        <time>2022-02-24T17:54:52.809Z</time>
      </trkpt>
      <trkpt lat="46.23795" lon="5.6913">
        <ele>877.196715</ele>
        <time>2022-02-24T17:54:40.918Z</time>
      </trkpt>
      <trkpt lat="46.23826" lon="5.69123">
        <ele>880.593507</ele>
        <time>2022-02-24T17:54:28.932Z</time>
      </trkpt>
      <trkpt lat="46.2385" lon="5.6911">
        <ele>883.319754</ele>
        <time>2022-02-24T17:54:19.297Z</time>
      </trkpt>
      <trkpt lat="46.2393" lon="5.69112">
        <ele>889.757686</ele>
        <time>2022-02-24T17:53:47.812Z</time>
      </trkpt>
      <trkpt lat="46.23988" lon="5.69069">
        <ele>894.337042</ele>
        <time>2022-02-24T17:53:21.892Z</time>
      </trkpt>
      <trkpt lat="46.23994" lon="5.69035">
        <ele>896.05942</ele>
        <time>2022-02-24T17:53:11.042Z</time>
      </trkpt>
      <trkpt lat="46.24008" lon="5.69018">
        <ele>897.395949</ele>
        <time>2022-02-24T17:53:02.734Z</time>
      </trkpt>
      <trkpt lat="46.24013" lon="5.68999">
        <ele>898.244163</ele>
        <time>2022-02-24T17:52:56.119Z</time>
      </trkpt>
      <trkpt lat="46.24023" lon="5.68981">
        <ele>897.821497</ele>
        <time>2022-02-24T17:52:48.791Z</time>
      </trkpt>
      <trkpt lat="46.24041" lon="5.6896">
        <ele>897.197615</ele>
        <time>2022-02-24T17:52:37.693Z</time>
      </trkpt>
      <trkpt lat="46.24039" lon="5.6893">
        <ele>896.644186</ele>
        <time>2022-02-24T17:52:28.001Z</time>
      </trkpt>
      <trkpt lat="46.2403" lon="5.68915">
        <ele>896.254474</ele>
        <time>2022-02-24T17:52:21.300Z</time>
      </trkpt>
      <trkpt lat="46.24025" lon="5.689">
        <ele>895.96031</ele>
        <time>2022-02-24T17:52:16.424Z</time>
      </trkpt>
      <trkpt lat="46.24025" lon="5.68882">
        <ele>895.6221</ele>
        <time>2022-02-24T17:52:11.339Z</time>
      </trkpt>
      <trkpt lat="46.24033" lon="5.68867">
        <ele>895.27516</ele>
        <time>2022-02-24T17:52:03.296Z</time>
      </trkpt>
      <trkpt lat="46.24065" lon="5.68819">
        <ele>894.033674</ele>
        <time>2022-02-24T17:51:36.598Z</time>
      </trkpt>
      <trkpt lat="46.24134" lon="5.68636">
        <ele>882.003705</ele>
        <time>2022-02-24T17:49:48.718Z</time>
      </trkpt>
      <trkpt lat="46.24167" lon="5.68588">
        <ele>877.569829</ele>
        <time>2022-02-24T17:49:11.635Z</time>
      </trkpt>
      <trkpt lat="46.24179" lon="5.68582">
        <ele>876.418581</ele>
        <time>2022-02-24T17:49:01.218Z</time>
      </trkpt>
      <trkpt lat="46.24191" lon="5.68569">
        <ele>875.180886</ele>
        <time>2022-02-24T17:48:50.808Z</time>
      </trkpt>
      <trkpt lat="46.24204" lon="5.68523">
        <ele>872.309482</ele>
        <time>2022-02-24T17:48:25.446Z</time>
      </trkpt>
      <trkpt lat="46.24226" lon="5.6851">
        <ele>870.307707</ele>
        <time>2022-02-24T17:48:07.424Z</time>
      </trkpt>
      <trkpt lat="46.24333" lon="5.68536">
        <ele>861.212128</ele>
        <time>2022-02-24T17:46:54.214Z</time>
      </trkpt>
      <trkpt lat="46.24378" lon="5.68516">
        <ele>857.610018</ele>
        <time>2022-02-24T17:46:24.951Z</time>
      </trkpt>
      <trkpt lat="46.24378" lon="5.68516">
        <ele>857.594586</ele>
        <time>2022-02-24T17:46:24.181Z</time>
      </trkpt>
      <trkpt lat="46.24435" lon="5.6851">
        <ele>853.194674</ele>
        <time>2022-02-24T17:45:47.383Z</time>
      </trkpt>
      <trkpt lat="46.2449" lon="5.68521">
        <ele>848.91186</ele>
        <time>2022-02-24T17:45:08.461Z</time>
      </trkpt>
      <trkpt lat="46.24522" lon="5.68513">
        <ele>845.961419</ele>
        <time>2022-02-24T17:44:44.823Z</time>
      </trkpt>
      <trkpt lat="46.24587" lon="5.68516">
        <ele>839.160688</ele>
        <time>2022-02-24T17:43:55.789Z</time>
      </trkpt>
      <trkpt lat="46.24607" lon="5.68548">
        <ele>836.045257</ele>
        <time>2022-02-24T17:43:31.859Z</time>
      </trkpt>
      <trkpt lat="46.24618" lon="5.68589">
        <ele>832.921996</ele>
        <time>2022-02-24T17:43:07.439Z</time>
      </trkpt>
      <trkpt lat="46.2463" lon="5.68617">
        <ele>830.523403</ele>
        <time>2022-02-24T17:42:48.452Z</time>
      </trkpt>
      <trkpt lat="46.24658" lon="5.68615">
        <ele>827.254786</ele>
        <time>2022-02-24T17:42:25.205Z</time>
      </trkpt>
      <trkpt lat="46.24671" lon="5.68621">
        <ele>825.34758</ele>
        <time>2022-02-24T17:42:13.381Z</time>
      </trkpt>
      <trkpt lat="46.24686" lon="5.68631">
        <ele>823.124261</ele>
        <time>2022-02-24T17:41:59.436Z</time>
      </trkpt>
      <trkpt lat="46.24691" lon="5.68645">
        <ele>821.643664</ele>
        <time>2022-02-24T17:41:50.257Z</time>
      </trkpt>
      <trkpt lat="46.24722" lon="5.68663">
        <ele>817.062571</ele>
        <time>2022-02-24T17:41:18.347Z</time>
      </trkpt>
      <trkpt lat="46.24756" lon="5.68696">
        <ele>811.547927</ele>
        <time>2022-02-24T17:40:40.572Z</time>
      </trkpt>
      <trkpt lat="46.24833" lon="5.68726">
        <ele>800.877735</ele>
        <time>2022-02-24T17:39:28.855Z</time>
      </trkpt>
      <trkpt lat="46.24848" lon="5.68725">
        <ele>759.5</ele>
      </trkpt>
      <trkpt lat="46.24851" lon="5.68755">
        <ele>800.36141</ele>
        <time>2022-02-24T20:09:59.002Z</time>
      </trkpt>
      <trkpt lat="46.2489" lon="5.6884">
        <ele>809.303638</ele>
        <time>2022-02-24T20:09:36.441Z</time>
      </trkpt>
      <trkpt lat="46.24905" lon="5.68853">
        <ele>811.570411</ele>
        <time>2022-02-24T20:09:30.884Z</time>
      </trkpt>
      <trkpt lat="46.2492" lon="5.68894">
        <ele>815.755783</ele>
        <time>2022-02-24T20:09:20.659Z</time>
      </trkpt>
      <trkpt lat="46.24928" lon="5.68947">
        <ele>820.756045</ele>
        <time>2022-02-24T20:09:08.408Z</time>
      </trkpt>
      <trkpt lat="46.24937" lon="5.69035">
        <ele>828.823445</ele>
        <time>2022-02-24T20:08:48.566Z</time>
      </trkpt>
      <trkpt lat="46.2492" lon="5.6916">
        <ele>836.96493</ele>
        <time>2022-02-24T20:08:19.970Z</time>
      </trkpt>
      <trkpt lat="46.24924" lon="5.69245">
        <ele>842.329035</ele>
        <time>2022-02-24T20:07:59.583Z</time>
      </trkpt>
      <trkpt lat="46.24931" lon="5.6928">
        <ele>844.566616</ele>
        <time>2022-02-24T20:07:50.874Z</time>
      </trkpt>
      <trkpt lat="46.24908" lon="5.69355">
        <ele>847.913058</ele>
        <time>2022-02-24T20:07:30.342Z</time>
      </trkpt>
      <trkpt lat="46.24911" lon="5.69402">
        <ele>849.524402</ele>
        <time>2022-02-24T20:07:18.125Z</time>
      </trkpt>
      <trkpt lat="46.24906" lon="5.69449">
        <ele>851.14416</ele>
        <time>2022-02-24T20:07:05.731Z</time>
      </trkpt>
      <trkpt lat="46.24894" lon="5.69481">
        <ele>852.385326</ele>
        <time>2022-02-24T20:06:56.270Z</time>
      </trkpt>
      <trkpt lat="46.24847" lon="5.69537">
        <ele>855.617676</ele>
        <time>2022-02-24T20:06:33.758Z</time>
      </trkpt>
      <trkpt lat="46.24825" lon="5.69578">
        <ele>857.89388</ele>
        <time>2022-02-24T20:06:20.867Z</time>
      </trkpt>
      <trkpt lat="46.24828" lon="5.69617">
        <ele>859.594001</ele>
        <time>2022-02-24T20:06:11.338Z</time>
      </trkpt>
      <trkpt lat="46.24841" lon="5.69634">
        <ele>860.720406</ele>
        <time>2022-02-24T20:06:05.040Z</time>
      </trkpt>
      <trkpt lat="46.24881" lon="5.69645">
        <ele>863.302083</ele>
        <time>2022-02-24T20:05:50.690Z</time>
      </trkpt>
      <trkpt lat="46.24909" lon="5.69666">
        <ele>865.317771</ele>
        <time>2022-02-24T20:05:39.543Z</time>
      </trkpt>
      <trkpt lat="46.24917" lon="5.69685">
        <ele>866.1913</ele>
        <time>2022-02-24T20:05:34.224Z</time>
      </trkpt>
      <trkpt lat="46.24918" lon="5.69771">
        <ele>868.799989</ele>
        <time>2022-02-24T20:05:13.549Z</time>
      </trkpt>
      <trkpt lat="46.24936" lon="5.69878">
        <ele>872.149949</ele>
        <time>2022-02-24T20:04:45.490Z</time>
      </trkpt>
      <trkpt lat="46.2494" lon="5.6993">
        <ele>873.72533</ele>
        <time>2022-02-24T20:04:31.248Z</time>
      </trkpt>
      <trkpt lat="46.2494" lon="5.70063">
        <ele>872.360158</ele>
        <time>2022-02-24T20:03:51.073Z</time>
      </trkpt>
      <trkpt lat="46.24934" lon="5.70099">
        <ele>871.915326</ele>
        <time>2022-02-24T20:03:38.997Z</time>
      </trkpt>
      <trkpt lat="46.24905" lon="5.70215">
        <ele>871.418221</ele>
        <time>2022-02-24T20:02:59.267Z</time>
      </trkpt>
      <trkpt lat="46.24885" lon="5.70254">
        <ele>872.454246</ele>
        <time>2022-02-24T20:02:45.202Z</time>
      </trkpt>
      <trkpt lat="46.24853" lon="5.70275">
        <ele>873.578387</ele>
        <time>2022-02-24T20:02:30.742Z</time>
      </trkpt>
      <trkpt lat="46.24822" lon="5.7028">
        <ele>874.562477</ele>
        <time>2022-02-24T20:02:18.912Z</time>
      </trkpt>
      <trkpt lat="46.24721" lon="5.7026">
        <ele>881.843635</ele>
        <time>2022-02-24T20:01:44.364Z</time>
      </trkpt>
      <trkpt lat="46.24639" lon="5.70282">
        <ele>892.516101</ele>
        <time>2022-02-24T20:01:17.711Z</time>
      </trkpt>
      <trkpt lat="46.24552" lon="5.70269">
        <ele>904.342258</ele>
        <time>2022-02-24T20:00:49.534Z</time>
      </trkpt>
      <trkpt lat="46.2451" lon="5.70275">
        <ele>910.369888</ele>
        <time>2022-02-24T20:00:36.102Z</time>
      </trkpt>
      <trkpt lat="46.24485" lon="5.70275">
        <ele>913.943116</ele>
        <time>2022-02-24T20:00:28.131Z</time>
      </trkpt>
      <trkpt lat="46.24478" lon="5.70258">
        <ele>915.947637</ele>
        <time>2022-02-24T20:00:22.382Z</time>
      </trkpt>
      <trkpt lat="46.24457" lon="5.70277">
        <ele>919.516854</ele>
        <time>2022-02-24T20:00:12.120Z</time>
      </trkpt>
      <trkpt lat="46.24438" lon="5.70265">
        <ele>922.504156</ele>
        <time>2022-02-24T20:00:03.545Z</time>
      </trkpt>
      <trkpt lat="46.24417" lon="5.7026">
        <ele>925.564934</ele>
        <time>2022-02-24T19:59:54.732Z</time>
      </trkpt>
      <trkpt lat="46.24397" lon="5.70249">
        <ele>928.406471</ele>
        <time>2022-02-24T19:59:45.866Z</time>
      </trkpt>
      <trkpt lat="46.24362" lon="5.70241">
        <ele>933.111994</ele>
        <time>2022-02-24T19:59:31.183Z</time>
      </trkpt>
      <trkpt lat="46.2433" lon="5.70238">
        <ele>937.370344</ele>
        <time>2022-02-24T19:59:17.913Z</time>
      </trkpt>
      <trkpt lat="46.24285" lon="5.70227">
        <ele>943.430895</ele>
        <time>2022-02-24T19:58:59.058Z</time>
      </trkpt>
      <trkpt lat="46.24261" lon="5.70226">
        <ele>946.619288</ele>
        <time>2022-02-24T19:58:49.137Z</time>
      </trkpt>
      <trkpt lat="46.24233" lon="5.70221">
        <ele>949.989288</ele>
        <time>2022-02-24T19:58:37.487Z</time>
      </trkpt>
      <trkpt lat="46.24187" lon="5.70225">
        <ele>953.764331</ele>
        <time>2022-02-24T19:58:18.471Z</time>
      </trkpt>
      <trkpt lat="46.24141" lon="5.70229">
        <ele>957.539373</ele>
        <time>2022-02-24T19:57:59.492Z</time>
      </trkpt>
      <trkpt lat="46.24143" lon="5.70258">
        <ele>959.212325</ele>
        <time>2022-02-24T19:57:51.079Z</time>
      </trkpt>
      <trkpt lat="46.24114" lon="5.70263">
        <ele>961.615587</ele>
        <time>2022-02-24T19:57:38.696Z</time>
      </trkpt>
      <trkpt lat="46.24056" lon="5.70207">
        <ele>965.466446</ele>
        <time>2022-02-24T19:57:08.095Z</time>
      </trkpt>
      <trkpt lat="46.23988" lon="5.70196">
        <ele>967.840667</ele>
        <time>2022-02-24T19:56:37.447Z</time>
      </trkpt>
      <trkpt lat="46.2397" lon="5.70175">
        <ele>968.640623</ele>
        <time>2022-02-24T19:56:27.050Z</time>
      </trkpt>
      <trkpt lat="46.23919" lon="5.7014">
        <ele>970.386499</ele>
        <time>2022-02-24T19:56:01.985Z</time>
      </trkpt>
      <trkpt lat="46.23851" lon="5.70142">
        <ele>970.930828</ele>
        <time>2022-02-24T19:55:30.823Z</time>
      </trkpt>
      <trkpt lat="46.23783" lon="5.70153">
        <ele>971.478208</ele>
        <time>2022-02-24T19:54:58.505Z</time>
      </trkpt>
      <trkpt lat="46.23747" lon="5.70129">
        <ele>971.60955</ele>
        <time>2022-02-24T19:54:38.098Z</time>
      </trkpt>
      <trkpt lat="46.2372" lon="5.70125">
        <ele>970.251378</ele>
        <time>2022-02-24T19:54:23.642Z</time>
      </trkpt>
      <trkpt lat="46.23712" lon="5.70108">
        <ele>969.503053</ele>
        <time>2022-02-24T19:54:15.401Z</time>
      </trkpt>
      <trkpt lat="46.23652" lon="5.70082">
        <ele>966.367483</ele>
        <time>2022-02-24T19:53:39.845Z</time>
      </trkpt>
      <trkpt lat="46.23645" lon="5.70084">
        <ele>966.004729</ele>
        <time>2022-02-24T19:53:35.105Z</time>
      </trkpt>
      <trkpt lat="46.23621" lon="5.70089">
        <ele>964.773867</ele>
        <time>2022-02-24T19:53:20.004Z</time>
      </trkpt>
      <trkpt lat="46.2359" lon="5.70074">
        <ele>963.115304</ele>
        <time>2022-02-24T19:52:58.187Z</time>
      </trkpt>
      <trkpt lat="46.23572" lon="5.7005">
        <ele>961.060292</ele>
        <time>2022-02-24T19:52:41.008Z</time>
      </trkpt>
      <trkpt lat="46.23559" lon="5.70046">
        <ele>959.62274</ele>
        <time>2022-02-24T19:52:31.124Z</time>
      </trkpt>
      <trkpt lat="46.23527" lon="5.70048">
        <ele>956.351243</ele>
        <time>2022-02-24T19:52:07.141Z</time>
      </trkpt>
      <trkpt lat="46.23492" lon="5.70039">
        <ele>952.571121</ele>
        <time>2022-02-24T19:51:37.351Z</time>
      </trkpt>
      <trkpt lat="46.23437" lon="5.70046">
        <ele>946.802718</ele>
        <time>2022-02-24T19:50:52.208Z</time>
      </trkpt>
      <trkpt lat="46.23366" lon="5.70033">
        <ele>938.926173</ele>
        <time>2022-02-24T19:49:51.498Z</time>
      </trkpt>
      <trkpt lat="46.23309" lon="5.70039">
        <ele>932.529105</ele>
        <time>2022-02-24T19:49:03.774Z</time>
      </trkpt>
      <trkpt lat="46.23247" lon="5.70059">
        <ele>925.31352</ele>
        <time>2022-02-24T19:48:12.730Z</time>
      </trkpt>
      <trkpt lat="46.23153" lon="5.70099">
        <ele>915.265119</ele>
        <time>2022-02-24T19:46:54.698Z</time>
      </trkpt>
      <trkpt lat="46.23112" lon="5.70095">
        <ele>911.02718</ele>
        <time>2022-02-24T19:46:24.538Z</time>
      </trkpt>
      <trkpt lat="46.23099" lon="5.70104">
        <ele>909.58205</ele>
        <time>2022-02-24T19:46:15.135Z</time>
      </trkpt>
      <trkpt lat="46.23084" lon="5.70099">
        <ele>908.049304</ele>
        <time>2022-02-24T19:46:02.413Z</time>
      </trkpt>
      <trkpt lat="46.23069" lon="5.70093">
        <ele>906.488922</ele>
        <time>2022-02-24T19:45:51.749Z</time>
      </trkpt>
      <trkpt lat="46.23023" lon="5.70102">
        <ele>901.535872</ele>
        <time>2022-02-24T19:45:13.332Z</time>
      </trkpt>
      <trkpt lat="46.23001" lon="5.70078">
        <ele>898.532243</ele>
        <time>2022-02-24T19:44:51.369Z</time>
      </trkpt>
      <trkpt lat="46.22963" lon="5.70098">
        <ele>894.165288</ele>
        <time>2022-02-24T19:44:18.103Z</time>
      </trkpt>
      <trkpt lat="46.22937" lon="5.70124">
        <ele>890.703507</ele>
        <time>2022-02-24T19:43:51.303Z</time>
      </trkpt>
      <trkpt lat="46.22921" lon="5.70106">
        <ele>888.564341</ele>
        <time>2022-02-24T19:43:34.807Z</time>
      </trkpt>
      <trkpt lat="46.22911" lon="5.70097">
        <ele>887.28012</ele>
        <time>2022-02-24T19:43:26.418Z</time>
      </trkpt>
      <trkpt lat="46.22883" lon="5.70102">
        <ele>884.524375</ele>
        <time>2022-02-24T19:43:03.347Z</time>
      </trkpt>
      <trkpt lat="46.22851" lon="5.70076">
        <ele>881.307837</ele>
        <time>2022-02-24T19:42:33.976Z</time>
      </trkpt>
      <trkpt lat="46.22765" lon="5.70071">
        <ele>873.870733</ele>
        <time>2022-02-24T19:41:30.011Z</time>
      </trkpt>
      <trkpt lat="46.2273" lon="5.70046">
        <ele>870.460138</ele>
        <time>2022-02-24T19:41:05.475Z</time>
      </trkpt>
      <trkpt lat="46.22683" lon="5.70039">
        <ele>870.000052</ele>
        <time>2022-02-24T19:40:38.173Z</time>
      </trkpt>
      <trkpt lat="46.22656" lon="5.70029">
        <ele>869.858865</ele>
        <time>2022-02-24T19:40:23.978Z</time>
      </trkpt>
      <trkpt lat="46.22628" lon="5.70005">
        <ele>869.693395</ele>
        <time>2022-02-24T19:40:07.948Z</time>
      </trkpt>
      <trkpt lat="46.22614" lon="5.70004">
        <ele>869.621164</ele>
        <time>2022-02-24T19:40:00.544Z</time>
      </trkpt>
      <trkpt lat="46.22601" lon="5.70003">
        <ele>869.557591</ele>
        <time>2022-02-24T19:39:55.191Z</time>
      </trkpt>
      <trkpt lat="46.22575" lon="5.70024">
        <ele>869.402388</ele>
        <time>2022-02-24T19:39:41.652Z</time>
      </trkpt>
      <trkpt lat="46.22534" lon="5.70041">
        <ele>869.632311</ele>
        <time>2022-02-24T19:39:23.357Z</time>
      </trkpt>
      <trkpt lat="46.22487" lon="5.70021">
        <ele>870.30029</ele>
        <time>2022-02-24T19:39:01.577Z</time>
      </trkpt>
      <trkpt lat="46.22475" lon="5.70026">
        <ele>870.465991</ele>
        <time>2022-02-24T19:38:56.075Z</time>
      </trkpt>
      <trkpt lat="46.22442" lon="5.70059">
        <ele>870.99806</ele>
        <time>2022-02-24T19:38:38.251Z</time>
      </trkpt>
      <trkpt lat="46.22419" lon="5.70059">
        <ele>871.318774</ele>
        <time>2022-02-24T19:38:25.656Z</time>
      </trkpt>
      <trkpt lat="46.22387" lon="5.70046">
        <ele>871.62426</ele>
        <time>2022-02-24T19:38:08.403Z</time>
      </trkpt>
      <trkpt lat="46.22374" lon="5.70031">
        <ele>870.438761</ele>
        <time>2022-02-24T19:37:59.300Z</time>
      </trkpt>
      <trkpt lat="46.2235" lon="5.70029">
        <ele>868.763125</ele>
        <time>2022-02-24T19:37:44.918Z</time>
      </trkpt>
      <trkpt lat="46.22327" lon="5.70033">
        <ele>867.08456</ele>
        <time>2022-02-24T19:37:30.773Z</time>
      </trkpt>
      <trkpt lat="46.22316" lon="5.70011">
        <ele>865.809093</ele>
        <time>2022-02-24T19:37:18.850Z</time>
      </trkpt>
      <trkpt lat="46.22328" lon="5.69975">
        <ele>863.847325</ele>
        <time>2022-02-24T19:36:57.717Z</time>
      </trkpt>
      <trkpt lat="46.22325" lon="5.69919">
        <ele>861.1262</ele>
        <time>2022-02-24T19:36:28.814Z</time>
      </trkpt>
      <trkpt lat="46.22331" lon="5.69887">
        <ele>859.506693</ele>
        <time>2022-02-24T19:36:12.040Z</time>
      </trkpt>
      <trkpt lat="46.22292" lon="5.69863">
        <ele>857.047431</ele>
        <time>2022-02-24T19:35:40.278Z</time>
      </trkpt>
      <trkpt lat="46.22285" lon="5.69846">
        <ele>856.254905</ele>
        <time>2022-02-24T19:35:30.153Z</time>
      </trkpt>
      <trkpt lat="46.22301" lon="5.69803">
        <ele>854.331759</ele>
        <time>2022-02-24T19:35:08.049Z</time>
      </trkpt>
      <trkpt lat="46.22291" lon="5.69741">
        <ele>851.813551</ele>
        <time>2022-02-24T19:34:43.071Z</time>
      </trkpt>
      <trkpt lat="46.2226" lon="5.69687">
        <ele>849.064823</ele>
        <time>2022-02-24T19:34:16.965Z</time>
      </trkpt>
      <trkpt lat="46.22238" lon="5.69675">
        <ele>848.590195</ele>
        <time>2022-02-24T19:34:04.398Z</time>
      </trkpt>
      <trkpt lat="46.22225" lon="5.69658">
        <ele>848.331</ele>
        <time>2022-02-24T19:33:54.875Z</time>
      </trkpt>
      <trkpt lat="46.22184" lon="5.69628">
        <ele>847.683811</ele>
        <time>2022-02-24T19:33:31.389Z</time>
      </trkpt>
      <trkpt lat="46.22179" lon="5.69606">
        <ele>847.44724</ele>
        <time>2022-02-24T19:33:23.019Z</time>
      </trkpt>
      <trkpt lat="46.22174" lon="5.69603">
        <ele>847.375957</ele>
        <time>2022-02-24T19:33:20.615Z</time>
      </trkpt>
      <trkpt lat="46.22169" lon="5.69599">
        <ele>847.293932</ele>
        <time>2022-02-24T19:33:17.639Z</time>
      </trkpt>
      <trkpt lat="46.22154" lon="5.69597">
        <ele>847.078527</ele>
        <time>2022-02-24T19:33:10.002Z</time>
      </trkpt>
      <trkpt lat="46.22142" lon="5.69597">
        <ele>846.909687</ele>
        <time>2022-02-24T19:33:04.168Z</time>
      </trkpt>
      <trkpt lat="46.2211" lon="5.69569">
        <ele>846.3729</ele>
        <time>2022-02-24T19:32:45.651Z</time>
      </trkpt>
      <trkpt lat="46.22095" lon="5.69566">
        <ele>846.443412</ele>
        <time>2022-02-24T19:32:38.460Z</time>
      </trkpt>
      <trkpt lat="46.22076" lon="5.69559">
        <ele>846.708409</ele>
        <time>2022-02-24T19:32:28.859Z</time>
      </trkpt>
      <trkpt lat="46.22052" lon="5.69563">
        <ele>847.036219</ele>
        <time>2022-02-24T19:32:17.143Z</time>
      </trkpt>
      <trkpt lat="46.22017" lon="5.69534">
        <ele>847.575034</ele>
        <time>2022-02-24T19:31:57.818Z</time>
      </trkpt>
      <trkpt lat="46.22013" lon="5.69534">
        <ele>847.631525</ele>
        <time>2022-02-24T19:31:55.783Z</time>
      </trkpt>
      <trkpt lat="46.22" lon="5.69536">
        <ele>847.79558</ele>
        <time>2022-02-24T19:31:49.966Z</time>
      </trkpt>
      <trkpt lat="46.21976" lon="5.6956">
        <ele>848.182996</ele>
        <time>2022-02-24T19:31:38.665Z</time>
      </trkpt>
      <trkpt lat="46.21972" lon="5.69561">
        <ele>848.246213</ele>
        <time>2022-02-24T19:31:36.822Z</time>
      </trkpt>
      <trkpt lat="46.21954" lon="5.69575">
        <ele>848.512442</ele>
        <time>2022-02-24T19:31:29.304Z</time>
      </trkpt>
      <trkpt lat="46.21946" lon="5.69602">
        <ele>849.031653</ele>
        <time>2022-02-24T19:31:21.429Z</time>
      </trkpt>
      <trkpt lat="46.21946" lon="5.69621">
        <ele>849.785238</ele>
        <time>2022-02-24T19:31:16.567Z</time>
      </trkpt>
      <trkpt lat="46.21935" lon="5.69642">
        <ele>850.814955</ele>
        <time>2022-02-24T19:31:09.718Z</time>
      </trkpt>
      <trkpt lat="46.21903" lon="5.69662">
        <ele>852.770026</ele>
        <time>2022-02-24T19:30:57.019Z</time>
      </trkpt>
      <trkpt lat="46.21895" lon="5.69672">
        <ele>853.377871</ele>
        <time>2022-02-24T19:30:53.131Z</time>
      </trkpt>
      <trkpt lat="46.21888" lon="5.69658">
        <ele>854.035965</ele>
        <time>2022-02-24T19:30:48.323Z</time>
      </trkpt>
      <trkpt lat="46.21873" lon="5.69641">
        <ele>855.118676</ele>
        <time>2022-02-24T19:30:40.029Z</time>
      </trkpt>
      <trkpt lat="46.21837" lon="5.69628">
        <ele>857.19566</ele>
        <time>2022-02-24T19:30:24.502Z</time>
      </trkpt>
      <trkpt lat="46.21792" lon="5.69583">
        <ele>861.063793</ele>
        <time>2022-02-24T19:30:02.503Z</time>
      </trkpt>
      <trkpt lat="46.21744" lon="5.69459">
        <ele>869.670677</ele>
        <time>2022-02-24T19:29:22.956Z</time>
      </trkpt>
      <trkpt lat="46.21723" lon="5.69437">
        <ele>871.873132</ele>
        <time>2022-02-24T19:29:12.831Z</time>
      </trkpt>
      <trkpt lat="46.21706" lon="5.69421">
        <ele>873.656355</ele>
        <time>2022-02-24T19:29:04.667Z</time>
      </trkpt>
      <trkpt lat="46.21658" lon="5.69389">
        <ele>878.859167</ele>
        <time>2022-02-24T19:28:44.203Z</time>
      </trkpt>
      <trkpt lat="46.21628" lon="5.69347">
        <ele>883.036112</ele>
        <time>2022-02-24T19:28:28.360Z</time>
      </trkpt>
      <trkpt lat="46.21622" lon="5.69299">
        <ele>886.463171</ele>
        <time>2022-02-24T19:28:15.410Z</time>
      </trkpt>
      <trkpt lat="46.21634" lon="5.69272">
        <ele>888.649684</ele>
        <time>2022-02-24T19:28:06.915Z</time>
      </trkpt>
      <trkpt lat="46.21635" lon="5.69237">
        <ele>891.055656</ele>
        <time>2022-02-24T19:27:57.507Z</time>
      </trkpt>
      <trkpt lat="46.21613" lon="5.69227">
        <ele>893.222323</ele>
        <time>2022-02-24T19:27:48.497Z</time>
      </trkpt>
      <trkpt lat="46.21586" lon="5.6923">
        <ele>895.273623</ele>
        <time>2022-02-24T19:27:37.848Z</time>
      </trkpt>
      <trkpt lat="46.21557" lon="5.69206">
        <ele>897.861283</ele>
        <time>2022-02-24T19:27:24.332Z</time>
      </trkpt>
      <trkpt lat="46.21519" lon="5.6916">
        <ele>901.602472</ele>
        <time>2022-02-24T19:27:04.625Z</time>
      </trkpt>
      <trkpt lat="46.21496" lon="5.69152">
        <ele>903.442677</ele>
        <time>2022-02-24T19:26:54.822Z</time>
      </trkpt>
      <trkpt lat="46.21462" lon="5.69139">
        <ele>906.139922</ele>
        <time>2022-02-24T19:26:39.717Z</time>
      </trkpt>
      <trkpt lat="46.2142" lon="5.69129">
        <ele>907.221936</ele>
        <time>2022-02-24T19:26:21.296Z</time>
      </trkpt>
      <trkpt lat="46.21351" lon="5.69079">
        <ele>908.939437</ele>
        <time>2022-02-24T19:25:46.155Z</time>
      </trkpt>
      <trkpt lat="46.21321" lon="5.69058">
        <ele>909.677929</ele>
        <time>2022-02-24T19:25:30.303Z</time>
      </trkpt>
      <trkpt lat="46.21258" lon="5.69037">
        <ele>909.418212</ele>
        <time>2022-02-24T19:24:58.960Z</time>
      </trkpt>
      <trkpt lat="46.21137" lon="5.68967">
        <ele>905.916545</ele>
        <time>2022-02-24T19:23:48.933Z</time>
      </trkpt>
      <trkpt lat="46.211" lon="5.68955">
        <ele>903.848796</ele>
        <time>2022-02-24T19:23:25.368Z</time>
      </trkpt>
      <trkpt lat="46.21094" lon="5.68955">
        <ele>903.470094</ele>
        <time>2022-02-24T19:23:21.477Z</time>
      </trkpt>
      <trkpt lat="46.21054" lon="5.68968">
        <ele>900.504896</ele>
        <time>2022-02-24T19:22:52.866Z</time>
      </trkpt>
      <trkpt lat="46.21006" lon="5.68992">
        <ele>896.926105</ele>
        <time>2022-02-24T19:22:18.121Z</time>
      </trkpt>
      <trkpt lat="46.2098" lon="5.68997">
        <ele>894.997254</ele>
        <time>2022-02-24T19:21:58.395Z</time>
      </trkpt>
      <trkpt lat="46.2095" lon="5.69003">
        <ele>892.839416</ele>
        <time>2022-02-24T19:21:38.794Z</time>
      </trkpt>
      <trkpt lat="46.20948" lon="5.69003">
        <ele>892.699503</ele>
        <time>2022-02-24T19:21:35.868Z</time>
      </trkpt>
      <trkpt lat="46.20913" lon="5.68995">
        <ele>891.91314</ele>
        <time>2022-02-24T19:21:14.497Z</time>
      </trkpt>
      <trkpt lat="46.20894" lon="5.68938">
        <ele>890.940053</ele>
        <time>2022-02-24T19:20:49.397Z</time>
      </trkpt>
      <trkpt lat="46.20874" lon="5.68925">
        <ele>890.461754</ele>
        <time>2022-02-24T19:20:38.482Z</time>
      </trkpt>
      <trkpt lat="46.20845" lon="5.68919">
        <ele>889.806164</ele>
        <time>2022-02-24T19:20:23.426Z</time>
      </trkpt>
      <trkpt lat="46.20769" lon="5.68871">
        <ele>889.623869</ele>
        <time>2022-02-24T19:19:51.036Z</time>
      </trkpt>
      <trkpt lat="46.20688" lon="5.68825">
        <ele>892.069455</ele>
        <time>2022-02-24T19:19:17.602Z</time>
      </trkpt>
      <trkpt lat="46.20692" lon="5.68797">
        <ele>892.631497</ele>
        <time>2022-02-24T19:19:10.096Z</time>
      </trkpt>
      <trkpt lat="46.20689" lon="5.6877">
        <ele>893.157553</ele>
        <time>2022-02-24T19:19:02.738Z</time>
      </trkpt>
      <trkpt lat="46.20627" lon="5.68688">
        <ele>895.940203</ele>
        <time>2022-02-24T19:18:31.390Z</time>
      </trkpt>
      <trkpt lat="46.20613" lon="5.68653">
        <ele>896.935337</ele>
        <time>2022-02-24T19:18:20.582Z</time>
      </trkpt>
      <trkpt lat="46.20618" lon="5.6861">
        <ele>897.973908</ele>
        <time>2022-02-24T19:18:09.568Z</time>
      </trkpt>
      <trkpt lat="46.20649" lon="5.68596">
        <ele>899.111507</ele>
        <time>2022-02-24T19:17:57.387Z</time>
      </trkpt>
      <trkpt lat="46.20709" lon="5.68602">
        <ele>900.691598</ele>
        <time>2022-02-24T19:17:34.358Z</time>
      </trkpt>
      <trkpt lat="46.20732" lon="5.68592">
        <ele>901.132633</ele>
        <time>2022-02-24T19:17:25.201Z</time>
      </trkpt>
      <trkpt lat="46.20739" lon="5.68569">
        <ele>901.451295</ele>
        <time>2022-02-24T19:17:18.864Z</time>
      </trkpt>
      <trkpt lat="46.207" lon="5.68536">
        <ele>902.300013</ele>
        <time>2022-02-24T19:17:01.261Z</time>
      </trkpt>
      <trkpt lat="46.20583" lon="5.68492">
        <ele>902.079213</ele>
        <time>2022-02-24T19:16:10.847Z</time>
      </trkpt>
      <trkpt lat="46.20496" lon="5.6841">
        <ele>899.822896</ele>
        <time>2022-02-24T19:15:23.533Z</time>
      </trkpt>
      <trkpt lat="46.20426" lon="5.68376">
        <ele>897.242142</ele>
        <time>2022-02-24T19:14:47.705Z</time>
      </trkpt>
      <trkpt lat="46.20404" lon="5.6834">
        <ele>895.970737</ele>
        <time>2022-02-24T19:14:31.210Z</time>
      </trkpt>
      <trkpt lat="46.20365" lon="5.68314">
        <ele>894.327534</ele>
        <time>2022-02-24T19:14:10.383Z</time>
      </trkpt>
      <trkpt lat="46.20258" lon="5.68272">
        <ele>890.899944</ele>
        <time>2022-02-24T19:13:18.550Z</time>
      </trkpt>
      <trkpt lat="46.20239" lon="5.68249">
        <ele>890.268727</ele>
        <time>2022-02-24T19:13:07.448Z</time>
      </trkpt>
      <trkpt lat="46.20239" lon="5.68249">
        <ele>890.265587</ele>
        <time>2022-02-24T19:13:07.401Z</time>
      </trkpt>
      <trkpt lat="46.20206" lon="5.68215">
        <ele>889.220043</ele>
        <time>2022-02-24T19:12:48.936Z</time>
      </trkpt>
      <trkpt lat="46.20181" lon="5.68189">
        <ele>888.428818</ele>
        <time>2022-02-24T19:12:35.394Z</time>
      </trkpt>
      <trkpt lat="46.20106" lon="5.6813">
        <ele>886.853698</ele>
        <time>2022-02-24T19:11:58.114Z</time>
      </trkpt>
      <trkpt lat="46.20048" lon="5.68088">
        <ele>885.809643</ele>
        <time>2022-02-24T19:11:30.006Z</time>
      </trkpt>
      <trkpt lat="46.19935" lon="5.6798">
        <ele>884.444451</ele>
        <time>2022-02-24T19:10:30.639Z</time>
      </trkpt>
      <trkpt lat="46.19862" lon="5.67968">
        <ele>883.955317</ele>
        <time>2022-02-24T19:09:59.498Z</time>
      </trkpt>
      <trkpt lat="46.19828" lon="5.67949">
        <ele>884.495493</ele>
        <time>2022-02-24T19:09:45.162Z</time>
      </trkpt>
      <trkpt lat="46.19756" lon="5.67881">
        <ele>887.639334</ele>
        <time>2022-02-24T19:09:12.252Z</time>
      </trkpt>
      <trkpt lat="46.19736" lon="5.67854">
        <ele>888.630539</ele>
        <time>2022-02-24T19:09:02.235Z</time>
      </trkpt>
      <trkpt lat="46.19745" lon="5.67847">
        <ele>888.99873</ele>
        <time>2022-02-24T19:08:58.653Z</time>
      </trkpt>
      <trkpt lat="46.19761" lon="5.67833">
        <ele>889.67871</ele>
        <time>2022-02-24T19:08:51.876Z</time>
      </trkpt>
      <trkpt lat="46.19835" lon="5.67837">
        <ele>894.8486</ele>
        <time>2022-02-24T19:08:25.641Z</time>
      </trkpt>
      <trkpt lat="46.19851" lon="5.67824">
        <ele>896.398061</ele>
        <time>2022-02-24T19:08:19.114Z</time>
      </trkpt>
      <trkpt lat="46.19853" lon="5.67806">
        <ele>897.467352</ele>
        <time>2022-02-24T19:08:14.785Z</time>
      </trkpt>
      <trkpt lat="46.19871" lon="5.67803">
        <ele>902.733706</ele>
        <time>2022-02-24T19:07:52.572Z</time>
      </trkpt>
      <trkpt lat="46.19896" lon="5.67805">
        <ele>904.804092</ele>
        <time>2022-02-24T19:07:42.548Z</time>
      </trkpt>
      <trkpt lat="46.19944" lon="5.67834">
        <ele>910.501906</ele>
        <time>2022-02-24T19:07:22.080Z</time>
      </trkpt>
      <trkpt lat="46.19955" lon="5.67825">
        <ele>911.868341</ele>
        <time>2022-02-24T19:07:17.434Z</time>
      </trkpt>
      <trkpt lat="46.19957" lon="5.67825">
        <ele>912.136702</ele>
        <time>2022-02-24T19:07:16.454Z</time>
      </trkpt>
      <trkpt lat="46.19964" lon="5.67815">
        <ele>913.177091</ele>
        <time>2022-02-24T19:07:12.932Z</time>
      </trkpt>
      <trkpt lat="46.19962" lon="5.67782">
        <ele>915.761977</ele>
        <time>2022-02-24T19:07:03.788Z</time>
      </trkpt>
      <trkpt lat="46.19971" lon="5.67763">
        <ele>917.492196</ele>
        <time>2022-02-24T19:06:57.934Z</time>
      </trkpt>
      <trkpt lat="46.19981" lon="5.67755">
        <ele>918.854792</ele>
        <time>2022-02-24T19:06:52.995Z</time>
      </trkpt>
      <trkpt lat="46.19984" lon="5.67752">
        <ele>919.255431</ele>
        <time>2022-02-24T19:06:51.638Z</time>
      </trkpt>
      <trkpt lat="46.20033" lon="5.6774">
        <ele>924.810311</ele>
        <time>2022-02-24T19:06:32.810Z</time>
      </trkpt>
      <trkpt lat="46.20052" lon="5.67752">
        <ele>927.139435</ele>
        <time>2022-02-24T19:06:24.896Z</time>
      </trkpt>
      <trkpt lat="46.20058" lon="5.67757">
        <ele>927.991835</ele>
        <time>2022-02-24T19:06:22.145Z</time>
      </trkpt>
      <trkpt lat="46.2012" lon="5.67675">
        <ele>937.660653</ele>
        <time>2022-02-24T19:05:50.210Z</time>
      </trkpt>
      <trkpt lat="46.20194" lon="5.67599">
        <ele>947.509246</ele>
        <time>2022-02-24T19:05:15.813Z</time>
      </trkpt>
      <trkpt lat="46.20239" lon="5.67579">
        <ele>951.310352</ele>
        <time>2022-02-24T19:04:57.748Z</time>
      </trkpt>
      <trkpt lat="46.2024" lon="5.67453">
        <ele>958.356435</ele>
        <time>2022-02-24T19:04:22.308Z</time>
      </trkpt>
      <trkpt lat="46.20202" lon="5.67381">
        <ele>961.412564</ele>
        <time>2022-02-24T19:03:55.414Z</time>
      </trkpt>
      <trkpt lat="46.2022" lon="5.67381">
        <ele>961.79293</ele>
        <time>2022-02-24T19:03:48.490Z</time>
      </trkpt>
      <trkpt lat="46.20239" lon="5.6738">
        <ele>962.181879</ele>
        <time>2022-02-24T19:03:41.342Z</time>
      </trkpt>
      <trkpt lat="46.2029" lon="5.67406">
        <ele>963.341625</ele>
        <time>2022-02-24T19:03:19.635Z</time>
      </trkpt>
      <trkpt lat="46.2029" lon="5.67407">
        <ele>963.348164</ele>
        <time>2022-02-24T19:03:19.220Z</time>
      </trkpt>
      <trkpt lat="46.20333" lon="5.67488">
        <ele>965.009814</ele>
        <time>2022-02-24T19:02:50.196Z</time>
      </trkpt>
      <trkpt lat="46.20356" lon="5.67502">
        <ele>965.761825</ele>
        <time>2022-02-24T19:02:40.070Z</time>
      </trkpt>
      <trkpt lat="46.20383" lon="5.67435">
        <ele>967.398488</ele>
        <time>2022-02-24T19:02:15.416Z</time>
      </trkpt>
      <trkpt lat="46.204" lon="5.67342">
        <ele>969.436095</ele>
        <time>2022-02-24T19:01:46.015Z</time>
      </trkpt>
      <trkpt lat="46.20333" lon="5.67223">
        <ele>975.772046</ele>
        <time>2022-02-24T19:01:02.861Z</time>
      </trkpt>
      <trkpt lat="46.20343" lon="5.67148">
        <ele>979.279676</ele>
        <time>2022-02-24T19:00:41.676Z</time>
      </trkpt>
      <trkpt lat="46.20331" lon="5.67075">
        <ele>981.697512</ele>
        <time>2022-02-24T19:00:19.485Z</time>
      </trkpt>
      <trkpt lat="46.20366" lon="5.67046">
        <ele>980.636201</ele>
        <time>2022-02-24T19:00:00.951Z</time>
      </trkpt>
      <trkpt lat="46.20418" lon="5.67035">
        <ele>979.271078</ele>
        <time>2022-02-24T18:59:35.562Z</time>
      </trkpt>
      <trkpt lat="46.20413" lon="5.67005">
        <ele>978.731851</ele>
        <time>2022-02-24T18:59:11.955Z</time>
      </trkpt>
      <trkpt lat="46.20416" lon="5.66989">
        <ele>978.42668</ele>
        <time>2022-02-24T18:58:55.539Z</time>
      </trkpt>
      <trkpt lat="46.20403" lon="5.66959">
        <ele>977.782295</ele>
        <time>2022-02-24T18:58:26.077Z</time>
      </trkpt>
      <trkpt lat="46.204" lon="5.66923">
        <ele>976.319317</ele>
        <time>2022-02-24T18:57:55.556Z</time>
      </trkpt>
      <trkpt lat="46.20403" lon="5.66857">
        <ele>970.402423</ele>
        <time>2022-02-24T18:56:48.118Z</time>
      </trkpt>
      <trkpt lat="46.20415" lon="5.66823">
        <ele>967.009486</ele>
        <time>2022-02-24T18:56:11.456Z</time>
      </trkpt>
      <trkpt lat="46.20426" lon="5.66799">
        <ele>964.414983</ele>
        <time>2022-02-24T18:55:34.993Z</time>
      </trkpt>
      <trkpt lat="46.20462" lon="5.66856">
        <ele>957.511205</ele>
        <time>2022-02-24T18:54:51.399Z</time>
      </trkpt>
      <trkpt lat="46.20492" lon="5.66876">
        <ele>953.000571</ele>
        <time>2022-02-24T18:54:17.656Z</time>
      </trkpt>
      <trkpt lat="46.20518" lon="5.66909">
        <ele>947.726071</ele>
        <time>2022-02-24T18:53:42.732Z</time>
      </trkpt>
      <trkpt lat="46.20596" lon="5.66943">
        <ele>935.135219</ele>
        <time>2022-02-24T18:52:27.949Z</time>
      </trkpt>
      <trkpt lat="46.20604" lon="5.66932">
        <ele>933.306956</ele>
        <time>2022-02-24T18:52:12.628Z</time>
      </trkpt>
      <trkpt lat="46.2064" lon="5.66891">
        <ele>926.329124</ele>
        <time>2022-02-24T18:51:30.698Z</time>
      </trkpt>
      <trkpt lat="46.20677" lon="5.66887">
        <ele>921.119072</ele>
        <time>2022-02-24T18:50:53.275Z</time>
      </trkpt>
      <trkpt lat="46.20714" lon="5.66839">
        <ele>914.328379</ele>
        <time>2022-02-24T18:50:04.651Z</time>
      </trkpt>
      <trkpt lat="46.20752" lon="5.66812">
        <ele>908.56874</ele>
        <time>2022-02-24T18:49:24.127Z</time>
      </trkpt>
      <trkpt lat="46.20768" lon="5.6676">
        <ele>903.101523</ele>
        <time>2022-02-24T18:48:52.944Z</time>
      </trkpt>
      <trkpt lat="46.20769" lon="5.66735">
        <ele>901.308541</ele>
        <time>2022-02-24T18:48:41.377Z</time>
      </trkpt>
      <trkpt lat="46.20763" lon="5.6672">
        <ele>900.790914</ele>
        <time>2022-02-24T18:48:33.558Z</time>
      </trkpt>
      <trkpt lat="46.20755" lon="5.66709">
        <ele>900.306657</ele>
        <time>2022-02-24T18:48:24.796Z</time>
      </trkpt>
      <trkpt lat="46.20759" lon="5.6666">
        <ele>898.847238</ele>
        <time>2022-02-24T18:48:04.570Z</time>
      </trkpt>
      <trkpt lat="46.20765" lon="5.66614">
        <ele>897.437803</ele>
        <time>2022-02-24T18:47:46.311Z</time>
      </trkpt>
      <trkpt lat="46.20776" lon="5.66615">
        <ele>896.973402</ele>
        <time>2022-02-24T18:47:41.295Z</time>
      </trkpt>
      <trkpt lat="46.20791" lon="5.66609">
        <ele>896.283615</ele>
        <time>2022-02-24T18:47:34.451Z</time>
      </trkpt>
      <trkpt lat="46.20806" lon="5.66594">
        <ele>895.519321</ele>
        <time>2022-02-24T18:47:25.769Z</time>
      </trkpt>
      <trkpt lat="46.20829" lon="5.66553">
        <ele>893.945704</ele>
        <time>2022-02-24T18:47:09.649Z</time>
      </trkpt>
      <trkpt lat="46.20834" lon="5.66541">
        <ele>893.750074</ele>
        <time>2022-02-24T18:47:05.755Z</time>
      </trkpt>
      <trkpt lat="46.20844" lon="5.66525">
        <ele>893.584635</ele>
        <time>2022-02-24T18:46:59.564Z</time>
      </trkpt>
      <trkpt lat="46.20851" lon="5.66517">
        <ele>893.488789</ele>
        <time>2022-02-24T18:46:55.909Z</time>
      </trkpt>
      <trkpt lat="46.20854" lon="5.66511">
        <ele>897.2</ele>
      </trkpt>
      <trkpt lat="46.20847" lon="5.66491">
        <ele>897.5</ele>
      </trkpt>
      <trkpt lat="46.20837" lon="5.6646">
        <ele>897.9</ele>
      </trkpt>
      <trkpt lat="46.20833" lon="5.66425">
        <ele>899.4</ele>
      </trkpt>
      <trkpt lat="46.20838" lon="5.66375">
        <ele>899.4</ele>
      </trkpt>
      <trkpt lat="46.2084" lon="5.66334">
        <ele>901</ele>
      </trkpt>
      <trkpt lat="46.20838" lon="5.66308">
        <ele>901.9</ele>
      </trkpt>
      <trkpt lat="46.20834" lon="5.66281">
        <ele>902</ele>
      </trkpt>
      <trkpt lat="46.20826" lon="5.66253">
        <ele>903.2</ele>
      </trkpt>
      <trkpt lat="46.20813" lon="5.66224">
        <ele>904.1</ele>
      </trkpt>
      <trkpt lat="46.20804" lon="5.66198">
        <ele>906</ele>
      </trkpt>
      <trkpt lat="46.20798" lon="5.66172">
        <ele>907.3</ele>
      </trkpt>
      <trkpt lat="46.20793" lon="5.6614">
        <ele>908.4</ele>
      </trkpt>
      <trkpt lat="46.20787" lon="5.66109">
        <ele>908</ele>
      </trkpt>
      <trkpt lat="46.2078" lon="5.66078">
        <ele>908.5</ele>
      </trkpt>
      <trkpt lat="46.20775" lon="5.66059">
        <ele>908.5</ele>
      </trkpt>
      <trkpt lat="46.20768" lon="5.66036">
        <ele>908.6</ele>
      </trkpt>
      <trkpt lat="46.20763" lon="5.66015">
        <ele>908.6</ele>
      </trkpt>
      <trkpt lat="46.20759" lon="5.65991">
        <ele>908.3</ele>
      </trkpt>
      <trkpt lat="46.20754" lon="5.65958">
        <ele>906.9</ele>
      </trkpt>
    </trkseg>
  </trk>
</gpx>